createdAt,value
2022-08-26T00:00:35.280Z,18.90
2022-08-26T00:05:23.704Z,18.90
2022-08-26T00:10:09.984Z,19.00
2022-08-26T00:14:53.990Z,19.00
2022-08-26T00:19:42.092Z,18.90
2022-08-26T00:24:31.245Z,19.00
2022-08-26T00:29:17.021Z,18.90
2022-08-26T00:34:01.582Z,18.90
2022-08-26T00:38:45.772Z,18.90
2022-08-26T00:43:47.719Z,18.90
2022-08-26T00:48:38.633Z,18.80
2022-08-26T00:53:29.857Z,18.70
2022-08-26T00:58:13.967Z,18.70
2022-08-26T01:03:02.586Z,18.70
2022-08-26T01:07:50.857Z,18.70
2022-08-26T01:12:40.212Z,18.60
2022-08-26T01:17:33.735Z,18.70
2022-08-26T01:22:23.026Z,18.60
2022-08-26T01:27:23.283Z,18.60
2022-08-26T01:32:17.836Z,18.50
2022-08-26T01:37:07.343Z,18.40
2022-08-26T01:41:55.456Z,18.40
2022-08-26T01:46:44.687Z,18.40
2022-08-26T01:51:31.930Z,18.40
2022-08-26T01:56:17.462Z,18.40
2022-08-26T02:01:08.324Z,18.40
2022-08-26T02:05:58.568Z,18.40
2022-08-26T02:10:44.156Z,18.40
2022-08-26T02:15:37.503Z,18.40
2022-08-26T02:20:23.321Z,18.40
2022-08-26T02:25:17.609Z,18.40
2022-08-26T02:30:08.076Z,18.30
2022-08-26T02:35:00.320Z,18.30
2022-08-26T02:39:45.703Z,18.20
2022-08-26T02:44:34.063Z,18.20
2022-08-26T02:49:18.091Z,18.20
2022-08-26T02:54:03.822Z,18.20
2022-08-26T02:58:51.002Z,18.20
2022-08-26T03:03:36.668Z,18.10
2022-08-26T03:08:28.830Z,18.10
2022-08-26T03:13:18.283Z,18.10
2022-08-26T03:18:02.855Z,18.00
2022-08-26T03:22:48.782Z,18.00
2022-08-26T03:27:32.867Z,18.00
2022-08-26T03:32:17.068Z,18.00
2022-08-26T03:37:00.736Z,17.90
2022-08-26T03:41:46.087Z,18.00
2022-08-26T03:46:29.740Z,18.00
2022-08-26T03:51:18.287Z,18.00
2022-08-26T03:56:03.493Z,17.90
2022-08-26T04:00:55.610Z,17.90
2022-08-26T04:05:39.951Z,17.80
2022-08-26T04:10:28.631Z,17.80
2022-08-26T04:15:17.841Z,17.70
2022-08-26T04:20:07.790Z,17.60
2022-08-26T04:24:53.395Z,17.60
2022-08-26T04:29:37.587Z,17.70
2022-08-26T04:34:23.587Z,17.70
2022-08-26T04:39:12.706Z,17.80
2022-08-26T04:43:57.460Z,17.90
2022-08-26T04:48:41.513Z,18.00
2022-08-26T04:53:25.325Z,18.00
2022-08-26T04:58:11.836Z,18.00
2022-08-26T05:02:55.398Z,18.00
2022-08-26T05:07:39.279Z,18.10
2022-08-26T05:12:23.641Z,18.10
2022-08-26T05:17:09.476Z,18.20
2022-08-26T05:21:59.287Z,18.20
2022-08-26T05:26:44.611Z,18.30
2022-08-26T05:31:31.750Z,18.30
2022-08-26T05:36:21.869Z,18.30
2022-08-26T05:41:14.351Z,18.30
2022-08-26T05:46:08.201Z,18.30
2022-08-26T05:50:53.901Z,18.40
2022-08-26T05:55:43.683Z,18.50
2022-08-26T06:00:28.192Z,18.60
2022-08-26T06:05:12.121Z,18.70
2022-08-26T06:10:15.170Z,18.90
2022-08-26T06:15:01.401Z,19.10
2022-08-26T06:19:52.387Z,19.30
2022-08-26T06:24:53.364Z,19.50
2022-08-26T06:29:38.703Z,19.80
2022-08-26T06:34:30.356Z,20.00
2022-08-26T06:39:16.451Z,20.30
2022-08-26T06:44:00.776Z,20.50
2022-08-26T06:48:44.871Z,20.90
2022-08-26T06:53:30.128Z,21.50
2022-08-26T06:58:14.898Z,22.30
2022-08-26T07:02:58.860Z,22.70
2022-08-26T07:07:42.612Z,23.30
2022-08-26T07:12:28.021Z,23.90
2022-08-26T07:17:14.454Z,24.20
2022-08-26T07:21:58.895Z,24.30
2022-08-26T07:26:43.074Z,24.10
2022-08-26T07:31:35.994Z,24.40
2022-08-26T07:36:28.164Z,25.00
2022-08-26T07:41:13.364Z,25.30
2022-08-26T07:45:57.318Z,25.80
2022-08-26T07:50:49.191Z,25.80
2022-08-26T07:55:34.674Z,26.10
2022-08-26T08:00:22.408Z,26.30
2022-08-26T08:05:07.212Z,26.60
2022-08-26T08:09:52.738Z,27.20
2022-08-26T08:14:37.541Z,27.90
2022-08-26T08:19:21.175Z,28.40
2022-08-26T08:24:06.239Z,28.30
2022-08-26T08:28:56.264Z,28.50
2022-08-26T08:33:42.874Z,28.90
2022-08-26T08:38:27.357Z,29.10
2022-08-26T08:43:13.634Z,29.30
2022-08-26T08:48:08.185Z,29.00
2022-08-26T08:53:10.778Z,28.50
2022-08-26T08:58:03.923Z,28.50
2022-08-26T09:02:53.813Z,29.70
2022-08-26T09:07:40.955Z,29.60
2022-08-26T09:12:29.783Z,29.60
2022-08-26T09:17:24.715Z,29.80
2022-08-26T09:22:09.593Z,29.50
2022-08-26T09:26:57.848Z,28.70
2022-08-26T09:31:41.770Z,27.80
2022-08-26T09:36:41.068Z,27.20
2022-08-26T09:41:28.570Z,26.70
2022-08-26T09:46:19.162Z,26.00
2022-08-26T09:51:06.261Z,25.80
2022-08-26T09:55:55.219Z,25.50
2022-08-26T10:00:42.405Z,25.40
2022-08-26T10:05:37.099Z,25.20
2022-08-26T10:10:26.885Z,25.30
2022-08-26T10:15:15.157Z,25.00
2022-08-26T10:20:28.857Z,25.00
2022-08-26T10:25:22.281Z,25.10
2022-08-26T10:30:11.640Z,25.80
2022-08-26T10:35:01.558Z,27.20
2022-08-26T10:39:58.866Z,28.60
2022-08-26T10:44:58.589Z,29.90
2022-08-26T10:49:44.713Z,31.30
2022-08-26T10:54:37.157Z,31.60
2022-08-26T10:59:32.410Z,32.30
2022-08-26T11:04:42.377Z,32.40
2022-08-26T11:09:49.886Z,32.80
2022-08-26T11:14:42.028Z,32.80
2022-08-26T11:20:08.973Z,33.00
2022-08-26T11:25:12.483Z,33.30
2022-08-26T11:30:03.409Z,33.20
2022-08-26T11:34:56.783Z,32.90
2022-08-26T11:39:55.396Z,32.50
2022-08-26T11:44:49.419Z,32.80
2022-08-26T11:49:33.876Z,33.00
2022-08-26T11:54:31.864Z,32.90
2022-08-26T12:04:28.830Z,32.60
2022-08-26T12:09:16.145Z,32.90
2022-08-26T12:14:05.587Z,32.80
2022-08-26T12:18:52.624Z,32.70
2022-08-26T12:23:45.066Z,32.60
2022-08-26T12:28:30.473Z,32.70
2022-08-26T12:33:22.288Z,33.20
2022-08-26T12:38:10.806Z,32.40
2022-08-26T12:43:00.513Z,33.20
2022-08-26T12:47:47.697Z,32.60
2022-08-26T12:52:34.958Z,33.00
2022-08-26T12:57:29.410Z,32.90
2022-08-26T13:02:39.354Z,33.00
2022-08-26T13:07:26.029Z,33.10
2022-08-26T13:12:15.331Z,33.10
2022-08-26T13:17:05.448Z,33.00
2022-08-26T13:22:01.951Z,32.20
2022-08-26T13:26:59.892Z,32.30
2022-08-26T13:31:48.432Z,31.60
2022-08-26T13:36:33.833Z,30.50
2022-08-26T13:41:29.125Z,30.10
2022-08-26T13:46:13.593Z,30.00
2022-08-26T13:50:57.659Z,29.90
2022-08-26T13:55:43.609Z,29.40
2022-08-26T14:00:27.326Z,29.00
2022-08-26T14:05:11.497Z,29.10
2022-08-26T14:09:58.593Z,29.10
2022-08-26T14:15:17.395Z,29.00
2022-08-26T14:20:28.162Z,28.50
2022-08-26T14:25:12.923Z,28.50
2022-08-26T14:29:58.117Z,28.40
2022-08-26T14:34:44.409Z,28.20
2022-08-26T14:39:28.023Z,28.40
2022-08-26T14:44:14.751Z,28.70
2022-08-26T14:49:02.992Z,29.20
2022-08-26T14:54:06.092Z,29.60
2022-08-26T14:58:49.597Z,30.00
2022-08-26T15:03:33.235Z,30.40
2022-08-26T15:08:18.490Z,30.40
2022-08-26T15:13:02.998Z,30.50
2022-08-26T15:17:46.774Z,30.60
2022-08-26T15:22:33.226Z,30.40
2022-08-26T15:27:19.237Z,30.40
2022-08-26T15:32:02.922Z,30.70
2022-08-26T15:36:48.133Z,30.90
2022-08-26T15:41:34.801Z,31.10
2022-08-26T15:46:20.791Z,30.90
2022-08-26T15:51:04.406Z,30.30
2022-08-26T15:55:48.379Z,29.80
2022-08-26T16:00:33.367Z,29.40
2022-08-26T16:05:18.724Z,29.30
2022-08-26T16:10:02.649Z,29.00
2022-08-26T16:14:46.626Z,28.90
2022-08-26T16:19:30.382Z,28.70
2022-08-26T16:24:17.240Z,28.30
2022-08-26T16:29:02.807Z,27.90
2022-08-26T16:33:46.948Z,27.70
2022-08-26T16:38:30.554Z,27.60
2022-08-26T16:43:15.549Z,27.70
2022-08-26T16:47:59.653Z,27.60
2022-08-26T16:52:43.708Z,27.10
2022-08-26T16:57:27.277Z,26.90
2022-08-26T17:02:13.453Z,26.60
2022-08-26T17:06:57.303Z,26.30
2022-08-26T17:11:41.612Z,26.30
2022-08-26T17:16:27.093Z,25.70
2022-08-26T17:21:14.879Z,25.40
2022-08-26T17:25:59.510Z,25.20
2022-08-26T17:30:44.588Z,24.90
2022-08-26T17:35:28.515Z,24.60
2022-08-26T17:40:21.277Z,24.20
2022-08-26T17:45:17.435Z,24.00
2022-08-26T17:50:10.522Z,23.80
2022-08-26T17:54:57.878Z,23.70
2022-08-26T17:59:43.114Z,23.50
2022-08-26T18:04:27.173Z,23.20
2022-08-26T18:09:11.029Z,23.00
2022-08-26T18:13:55.237Z,22.80
2022-08-26T18:18:43.570Z,22.80
2022-08-26T18:24:28.536Z,22.80
2022-08-26T18:29:19.695Z,22.90
2022-08-26T18:34:05.233Z,22.80
2022-08-26T18:38:50.819Z,22.60
2022-08-26T18:44:04.900Z,22.30
2022-08-26T19:01:46.385Z,21.70
2022-08-26T19:07:09.377Z,21.50
2022-08-26T19:23:31.413Z,21.00
2022-08-26T19:28:19.588Z,20.90
2022-08-26T19:33:05.486Z,20.90
2022-08-26T19:37:49.811Z,20.80
2022-08-26T19:42:49.253Z,20.90
2022-08-26T19:47:47.646Z,20.90
2022-08-26T19:52:34.545Z,21.00
2022-08-26T19:58:34.026Z,21.10
2022-08-26T20:08:57.157Z,20.90
2022-08-26T20:14:13.669Z,20.80
2022-08-26T20:19:22.572Z,20.60
2022-08-26T20:24:20.742Z,20.50
2022-08-26T20:29:09.208Z,20.50
2022-08-26T20:33:54.377Z,20.60
2022-08-26T20:38:40.448Z,20.50
2022-08-26T20:43:26.980Z,20.50
2022-08-26T20:48:17.210Z,20.50
2022-08-26T20:53:03.489Z,20.50
2022-08-26T20:57:50.454Z,20.50
2022-08-26T21:02:40.676Z,20.40
2022-08-26T21:07:24.405Z,20.40
2022-08-26T21:12:16.549Z,20.40
2022-08-26T21:17:16.907Z,20.40
2022-08-26T21:22:57.114Z,20.40
2022-08-26T21:28:55.596Z,20.40
2022-08-26T21:34:48.508Z,20.30
2022-08-26T21:40:38.558Z,20.30
2022-08-26T21:46:48.649Z,20.20
2022-08-26T21:52:39.202Z,20.20
2022-08-26T21:58:18.711Z,20.10
2022-08-26T22:08:39.260Z,20.10
2022-08-26T22:19:47.695Z,20.10
2022-08-26T22:24:52.157Z,20.00
2022-08-26T22:30:00.090Z,19.90
2022-08-26T22:35:35.672Z,19.90
2022-08-26T23:00:31.855Z,19.70
2022-08-26T23:06:07.246Z,19.80
2022-08-26T23:18:16.134Z,19.70
